createdAt,value
2017-07-01T00:00:26.753Z,54.1
2017-07-01T00:01:07.211Z,54.1
2017-07-01T00:01:47.668Z,53.91
2017-07-01T00:02:28.121Z,54.1
2017-07-01T00:03:08.585Z,53.91
2017-07-01T00:03:49.035Z,53.91
2017-07-01T00:04:29.494Z,53.81
2017-07-01T00:05:09.945Z,53.91
2017-07-01T00:05:50.407Z,54.1
2017-07-01T00:06:30.874Z,54.1
2017-07-01T00:07:11.337Z,54
2017-07-01T00:07:51.796Z,54.1
2017-07-01T00:08:32.253Z,54.1
2017-07-01T00:09:12.713Z,53.91
2017-07-01T00:09:53.169Z,53.81
2017-07-01T00:10:33.624Z,53.91
2017-07-01T00:11:14.098Z,54.19
2017-07-01T00:11:54.559Z,54.1
2017-07-01T00:12:35.017Z,54
2017-07-01T00:13:15.506Z,54.1
2017-07-01T00:13:55.962Z,54.1
2017-07-01T00:14:36.423Z,54.19
2017-07-01T00:15:16.886Z,54
2017-07-01T00:15:57.361Z,54
2017-07-01T00:16:37.798Z,54.19
2017-07-01T00:17:18.255Z,54.1
2017-07-01T00:17:58.713Z,54.19
2017-07-01T00:18:39.175Z,54
2017-07-01T00:19:19.639Z,54.19
2017-07-01T00:20:00.102Z,54.29
2017-07-01T00:20:40.558Z,54.19
2017-07-01T00:21:21.021Z,54.29
2017-07-01T00:22:01.477Z,53.91
2017-07-01T00:22:41.941Z,54.1
2017-07-01T00:23:22.386Z,54.1
2017-07-01T00:24:02.832Z,54.19
2017-07-01T00:24:43.292Z,53.91
2017-07-01T00:25:23.812Z,54
2017-07-01T00:26:04.276Z,53.81
2017-07-01T00:26:44.742Z,53.91
2017-07-01T00:27:25.203Z,54.07
2017-07-01T00:28:05.677Z,53.69
2017-07-01T00:28:46.138Z,53.91
2017-07-01T00:29:26.577Z,54.29
2017-07-01T00:30:07.036Z,54
2017-07-01T00:30:47.488Z,53.88
2017-07-01T00:31:27.942Z,53.81
2017-07-01T00:32:08.408Z,53.81
2017-07-01T00:32:48.857Z,53.78
2017-07-01T00:33:29.305Z,54.07
2017-07-01T00:34:09.768Z,54.07
2017-07-01T00:34:50.222Z,54.1
2017-07-01T00:35:30.657Z,54.07
2017-07-01T00:36:11.113Z,54.07
2017-07-01T00:36:51.575Z,53.88
2017-07-01T00:37:32.031Z,53.88
2017-07-01T00:38:12.479Z,54.27
2017-07-01T00:38:52.939Z,54.27
2017-07-01T00:39:33.393Z,54.27
2017-07-01T00:40:13.845Z,54.27
2017-07-01T00:40:54.301Z,54.07
2017-07-01T00:41:34.770Z,54.27
2017-07-01T00:42:15.228Z,54.17
2017-07-01T00:42:55.679Z,54.27
2017-07-01T00:43:36.135Z,54.27
2017-07-01T00:44:16.597Z,54.17
2017-07-01T00:44:57.058Z,54.36
2017-07-01T00:45:37.514Z,54.07
2017-07-01T00:46:17.965Z,54.17
2017-07-01T00:46:58.424Z,54.27
2017-07-01T00:47:38.874Z,53.97
2017-07-01T00:48:19.334Z,54.36
2017-07-01T00:48:59.778Z,54.27
2017-07-01T00:49:40.217Z,53.88
2017-07-01T00:50:20.668Z,54.07
2017-07-01T00:51:01.120Z,54.27
2017-07-01T00:51:41.592Z,54.27
2017-07-01T00:52:22.039Z,54.17
2017-07-01T00:53:02.502Z,54.07
2017-07-01T00:53:42.951Z,54.27
2017-07-01T00:54:23.404Z,54.17
2017-07-01T00:55:03.859Z,54.07
2017-07-01T00:55:44.324Z,54.07
2017-07-01T00:56:24.777Z,54.27
2017-07-01T00:57:05.232Z,54.07
2017-07-01T00:57:45.691Z,54.07
2017-07-01T00:58:26.146Z,54.07
2017-07-01T00:59:06.596Z,54.27
2017-07-01T00:59:47.060Z,53.97
2017-07-01T01:00:27.511Z,54
2017-07-01T01:01:07.962Z,54.07
2017-07-01T01:01:48.424Z,54.1
2017-07-01T01:02:28.890Z,54.1
2017-07-01T01:03:09.347Z,54.27
2017-07-01T01:03:49.803Z,54.19
2017-07-01T01:04:30.264Z,54.1
2017-07-01T01:05:10.724Z,53.97
2017-07-01T01:05:51.182Z,54.07
2017-07-01T01:06:31.640Z,54.07
2017-07-01T01:07:12.092Z,54.29
2017-07-01T01:07:52.548Z,54.07
2017-07-01T01:08:33.007Z,54.29
2017-07-01T01:09:13.458Z,54.07
2017-07-01T01:09:53.919Z,54.29
2017-07-01T01:10:34.355Z,54.19
2017-07-01T01:12:52.250Z,54.29
2017-07-01T01:13:32.701Z,54.29
2017-07-01T01:14:13.165Z,54.1
2017-07-01T01:14:53.613Z,54.19
2017-07-01T01:15:34.062Z,54.19
2017-07-01T01:16:14.507Z,53.91
2017-07-01T01:16:54.959Z,53.91
2017-07-01T01:17:35.415Z,54.1
2017-07-01T01:18:15.870Z,54.27
2017-07-01T01:18:56.328Z,54.07
2017-07-01T01:19:36.781Z,54.1
2017-07-01T01:20:17.237Z,54.1
2017-07-01T01:20:57.694Z,54.07
2017-07-01T01:21:38.137Z,54.27
2017-07-01T01:22:18.594Z,54.29
2017-07-01T01:22:59.049Z,54.29
2017-07-01T01:23:39.505Z,54.29
2017-07-01T01:24:19.961Z,54.27
2017-07-01T01:25:00.416Z,54.17
2017-07-01T01:25:40.872Z,54.27
2017-07-01T01:26:21.340Z,54
2017-07-01T01:27:01.796Z,54.27
2017-07-01T01:27:42.247Z,54.39
2017-07-01T01:28:22.697Z,54.19
2017-07-01T01:29:03.173Z,54.17
2017-07-01T01:29:43.627Z,54.19
2017-07-01T01:30:24.085Z,54.27
2017-07-01T01:31:04.545Z,54.29
2017-07-01T01:31:44.976Z,54.29
2017-07-01T01:32:25.441Z,54.17
2017-07-01T01:33:05.898Z,54.29
2017-07-01T01:33:46.353Z,54.1
2017-07-01T01:34:26.810Z,54.07
2017-07-01T01:35:07.266Z,54.27
2017-07-01T01:35:47.714Z,54.27
2017-07-01T01:36:28.178Z,54.07
2017-07-01T01:37:08.626Z,54.17
2017-07-01T01:37:49.072Z,54.65
2017-07-01T01:38:29.522Z,54.55
2017-07-01T01:39:09.973Z,54.55
2017-07-01T01:39:50.439Z,54.27
2017-07-01T01:40:30.894Z,54.46
2017-07-01T01:41:11.349Z,54.94
2017-07-01T01:41:51.819Z,54.94
2017-07-01T01:42:32.272Z,54.65
2017-07-01T01:43:12.728Z,54.94
2017-07-01T01:43:53.184Z,54.94
2017-07-01T01:44:33.637Z,54.94
2017-07-01T01:45:14.090Z,54.46
2017-07-01T01:45:54.547Z,54.27
2017-07-01T01:46:35.003Z,54.46
2017-07-01T01:47:15.460Z,55.13
2017-07-01T01:47:55.918Z,55.04
2017-07-01T01:48:36.411Z,54.84
2017-07-01T01:49:16.830Z,54.94
2017-07-01T01:49:57.285Z,55.01
2017-07-01T01:50:37.730Z,54.84
2017-07-01T01:51:18.184Z,55.13
2017-07-01T01:51:58.644Z,55.01
2017-07-01T01:52:39.099Z,55.01
2017-07-01T01:53:19.551Z,54.82
2017-07-01T01:54:00.008Z,54.91
2017-07-01T01:54:40.452Z,54.82
2017-07-01T01:55:20.908Z,54.91
2017-07-01T01:56:01.364Z,54.94
2017-07-01T01:56:41.817Z,54.91
2017-07-01T01:57:22.266Z,54.91
2017-07-01T01:58:02.730Z,54.82
2017-07-01T01:58:43.179Z,54.82
2017-07-01T01:59:23.628Z,54.82
2017-07-01T02:00:04.085Z,54.91
2017-07-01T02:00:44.535Z,54.82
2017-07-01T02:01:24.990Z,54.91
2017-07-01T02:02:05.443Z,54.82
2017-07-01T02:02:45.889Z,54.43
2017-07-01T02:03:26.339Z,55.01
2017-07-01T02:04:06.799Z,55.01
2017-07-01T02:04:47.250Z,54.82
2017-07-01T02:05:27.708Z,54.82
2017-07-01T02:06:08.159Z,54.82
2017-07-01T02:06:48.619Z,54.91
2017-07-01T02:07:29.073Z,54.91
2017-07-01T02:08:09.524Z,54.53
2017-07-01T02:08:49.977Z,54.91
2017-07-01T02:09:30.431Z,55.01
2017-07-01T02:10:10.892Z,54.91
2017-07-01T02:10:51.336Z,55.01
2017-07-01T02:11:31.788Z,54.82
2017-07-01T02:12:12.243Z,54.91
2017-07-01T02:12:52.693Z,54.91
2017-07-01T02:13:33.153Z,54.62
2017-07-01T02:14:13.607Z,54.91
2017-07-01T02:14:54.069Z,54.91
2017-07-01T02:15:34.527Z,54.72
2017-07-01T02:16:14.979Z,54.82
2017-07-01T02:16:55.432Z,54.91
2017-07-01T02:17:35.892Z,54.91
2017-07-01T02:18:16.346Z,55.01
2017-07-01T02:18:56.802Z,54.91
2017-07-01T02:19:37.259Z,55.01
2017-07-01T02:20:17.709Z,55.04
2017-07-01T02:20:58.165Z,54.43
2017-07-01T02:21:38.623Z,54.84
2017-07-01T02:22:19.071Z,54.82
2017-07-01T02:22:59.521Z,54.91
2017-07-01T02:23:39.974Z,54.84
2017-07-01T02:24:20.430Z,54.91
2017-07-01T02:25:00.886Z,54.91
2017-07-01T02:25:41.334Z,54.84
2017-07-01T02:26:21.801Z,55.04
2017-07-01T02:27:02.252Z,54.82
2017-07-01T02:27:42.715Z,54.94
2017-07-01T02:28:23.171Z,54.94
2017-07-01T02:29:03.624Z,54.94
2017-07-01T02:29:44.085Z,54.94
2017-07-01T02:30:24.541Z,54.84
2017-07-01T02:31:05.003Z,54.94
2017-07-01T02:31:45.450Z,54.94
2017-07-01T02:32:25.909Z,54.55
2017-07-01T02:33:06.359Z,54.84
2017-07-01T02:33:46.869Z,54.55
2017-07-01T02:34:27.343Z,54.94
2017-07-01T02:35:07.780Z,54.75
2017-07-01T02:35:48.232Z,54.75
2017-07-01T02:36:28.681Z,54.84
2017-07-01T02:37:09.141Z,55.04
2017-07-01T02:37:49.590Z,54.75
2017-07-01T02:38:30.042Z,54.94
2017-07-01T02:39:10.502Z,54.75
2017-07-01T02:39:50.956Z,54.65
2017-07-01T02:40:31.411Z,54.75
2017-07-01T02:41:11.867Z,54.75
2017-07-01T02:41:52.329Z,55.13
2017-07-01T02:42:32.774Z,54.94
2017-07-01T02:43:13.228Z,54.75
2017-07-01T02:43:53.726Z,54.84
2017-07-01T02:44:34.184Z,55.4
2017-07-01T02:45:14.638Z,55.01
2017-07-01T02:45:55.081Z,55.01
2017-07-01T02:46:35.531Z,55.2
2017-07-01T02:47:15.987Z,55.4
2017-07-01T02:47:56.442Z,55.2
2017-07-01T02:48:36.890Z,55.1
2017-07-01T02:49:17.344Z,55.3
2017-07-01T02:49:57.794Z,55.2
2017-07-01T02:50:38.247Z,55.68
2017-07-01T02:51:18.704Z,55.59
2017-07-01T02:51:59.157Z,55.68
2017-07-01T02:52:39.618Z,55.59
2017-07-01T02:53:20.074Z,55.2
2017-07-01T02:54:00.530Z,55.2
2017-07-01T02:54:40.988Z,55.2
2017-07-01T02:55:21.525Z,55.33
2017-07-01T02:56:01.928Z,55.2
2017-07-01T02:56:42.415Z,55.23
2017-07-01T02:57:22.865Z,55.2
2017-07-01T02:58:03.335Z,55.59
2017-07-01T02:58:43.803Z,55.3
2017-07-01T02:59:24.256Z,55.42
2017-07-01T03:00:04.704Z,55.4
2017-07-01T03:00:45.159Z,55.2
2017-07-01T03:01:25.613Z,55.2
2017-07-01T03:02:06.066Z,55.2
2017-07-01T03:02:46.518Z,55.2
2017-07-01T03:03:26.972Z,55.2
2017-07-01T03:04:07.429Z,55.2
2017-07-01T03:04:47.888Z,55.3
2017-07-01T03:05:28.343Z,55.68
2017-07-01T03:06:08.797Z,55.68
2017-07-01T03:06:49.258Z,55.2
2017-07-01T03:07:29.716Z,55.49
2017-07-01T03:08:10.167Z,55.98
2017-07-01T03:08:50.625Z,55.68
2017-07-01T03:09:31.086Z,55.49
2017-07-01T03:10:11.542Z,55.59
2017-07-01T03:10:52.001Z,55.49
2017-07-01T03:11:32.451Z,55.68
2017-07-01T03:12:12.911Z,55.3
2017-07-01T03:12:53.361Z,55.88
2017-07-01T03:13:33.825Z,55.98
2017-07-01T03:14:14.289Z,55.98
2017-07-01T03:14:54.744Z,55.78
2017-07-01T03:15:35.198Z,55.78
2017-07-01T03:16:15.695Z,55.49
2017-07-01T03:16:56.107Z,55.49
2017-07-01T03:17:36.563Z,55.49
2017-07-01T03:18:17.010Z,55.68
2017-07-01T03:18:57.469Z,55.68
2017-07-01T03:19:37.931Z,55.76
2017-07-01T03:20:18.433Z,55.78
2017-07-01T03:20:58.881Z,55.88
2017-07-01T03:21:39.354Z,55.76
2017-07-01T03:22:19.807Z,55.85
2017-07-01T03:23:00.252Z,55.85
2017-07-01T03:23:40.708Z,55.66
2017-07-01T03:24:21.154Z,56.04
2017-07-01T03:25:01.609Z,55.68
2017-07-01T03:25:42.053Z,55.66
2017-07-01T03:26:22.510Z,55.46
2017-07-01T03:27:02.963Z,55.56
2017-07-01T03:27:43.420Z,56.04
2017-07-01T03:28:23.873Z,55.46
2017-07-01T03:29:04.333Z,55.46
2017-07-01T03:29:44.792Z,55.68
2017-07-01T03:30:25.241Z,56.04
2017-07-01T03:31:05.690Z,56.04
2017-07-01T03:31:46.149Z,56.14
2017-07-01T03:32:26.620Z,55.76
2017-07-01T03:33:07.064Z,55.66
2017-07-01T03:33:47.510Z,55.88
2017-07-01T03:34:27.987Z,55.85
2017-07-01T03:35:08.403Z,56.24
2017-07-01T03:35:48.855Z,56.04
2017-07-01T03:36:29.308Z,55.46
2017-07-01T03:37:09.773Z,55.46
2017-07-01T03:37:50.220Z,55.88
2017-07-01T03:38:30.674Z,55.68
2017-07-01T03:39:11.121Z,55.68
2017-07-01T03:39:51.601Z,55.49
2017-07-01T03:40:32.049Z,55.68
2017-07-01T03:41:12.504Z,55.76
2017-07-01T03:41:52.941Z,55.76
2017-07-01T03:42:33.388Z,55.78
2017-07-01T03:43:13.836Z,55.76
2017-07-01T03:43:54.288Z,55.66
2017-07-01T03:44:34.736Z,55.56
2017-07-01T03:45:15.196Z,56.24
2017-07-01T03:45:55.663Z,55.85
2017-07-01T03:46:36.127Z,55.94
2017-07-01T03:47:16.575Z,56.04
2017-07-01T03:47:57.024Z,56.04
2017-07-01T03:48:37.475Z,56.14
2017-07-01T03:49:17.943Z,56.14
2017-07-01T03:49:58.381Z,56.14
2017-07-01T03:50:38.829Z,56.04
2017-07-01T03:51:19.310Z,56.04
2017-07-01T03:51:59.725Z,56.04
2017-07-01T03:52:40.172Z,56.14
2017-07-01T03:53:20.661Z,56.33
2017-07-01T03:54:01.088Z,56.24
2017-07-01T03:54:41.537Z,56.33
2017-07-01T03:55:21.988Z,56.24
2017-07-01T03:56:02.461Z,56.14
2017-07-01T03:56:42.921Z,56.43
2017-07-01T03:57:23.372Z,56.04
2017-07-01T03:58:03.826Z,56.04
2017-07-01T03:58:44.295Z,56.14
2017-07-01T03:59:24.729Z,56.14
2017-07-01T04:00:05.223Z,56.33
2017-07-01T04:00:45.668Z,56.43
2017-07-01T04:01:26.120Z,55.94
2017-07-01T04:02:06.581Z,56.14
2017-07-01T04:02:47.041Z,56.04
2017-07-01T04:03:27.491Z,56.24
2017-07-01T04:04:07.944Z,56.33
2017-07-01T04:04:48.399Z,56.24
2017-07-01T04:05:28.874Z,56.24
2017-07-01T04:06:09.325Z,56.14
2017-07-01T04:06:49.787Z,55.94
2017-07-01T04:07:30.240Z,55.85
2017-07-01T04:08:10.701Z,55.85
2017-07-01T04:08:51.135Z,56.04
2017-07-01T04:09:31.590Z,56.14
2017-07-01T04:10:12.039Z,55.56
2017-07-01T04:10:52.500Z,56.14
2017-07-01T04:11:32.957Z,56.24
2017-07-01T04:12:13.409Z,56.24
2017-07-01T04:12:53.859Z,55.76
2017-07-01T04:13:34.320Z,56.04
2017-07-01T04:14:14.781Z,56.04
2017-07-01T04:14:55.239Z,55.66
2017-07-01T04:15:35.673Z,55.46
2017-07-01T04:16:16.135Z,55.46
2017-07-01T04:16:56.587Z,55.76
2017-07-01T04:17:37.049Z,55.46
2017-07-01T04:18:17.497Z,55.46
2017-07-01T04:18:57.955Z,55.76
2017-07-01T04:19:38.419Z,55.66
2017-07-01T04:20:18.878Z,55.76
2017-07-01T04:20:59.342Z,55.76
2017-07-01T04:21:39.813Z,55.76
2017-07-01T04:22:20.281Z,55.68
2017-07-01T04:23:00.750Z,55.66
2017-07-01T04:23:41.198Z,55.85
2017-07-01T04:24:21.682Z,55.68
2017-07-01T04:26:09.379Z,55.3
2017-07-01T04:26:49.836Z,55.49
2017-07-01T04:27:30.292Z,55.49
2017-07-01T04:28:10.734Z,55.59
2017-07-01T04:28:51.177Z,55.4
2017-07-01T04:29:31.629Z,55.36
2017-07-01T04:30:12.088Z,55.49
2017-07-01T04:30:52.546Z,55.68
2017-07-01T04:31:32.985Z,55.46
2017-07-01T04:32:13.447Z,55.66
2017-07-01T04:32:53.895Z,55.36
2017-07-01T04:33:34.341Z,55.49
2017-07-01T04:34:14.793Z,55.66
2017-07-01T04:34:55.252Z,55.46
2017-07-01T04:35:35.699Z,55.56
2017-07-01T04:36:16.150Z,55.56
2017-07-01T04:36:56.607Z,55.36
2017-07-01T04:37:37.068Z,55.56
2017-07-01T04:38:17.521Z,55.36
2017-07-01T04:38:57.973Z,55.56
2017-07-01T04:39:38.420Z,55.46
2017-07-01T04:40:18.880Z,55.49
2017-07-01T04:40:59.327Z,55.59
2017-07-01T04:41:39.811Z,55.36
2017-07-01T04:42:20.266Z,55.4
2017-07-01T04:43:00.720Z,55.46
2017-07-01T04:44:58.645Z,55.36
2017-07-01T04:45:39.087Z,55.46
2017-07-01T04:46:19.539Z,55.46
2017-07-01T04:46:59.986Z,55.59
2017-07-01T04:47:40.455Z,55.66
2017-07-01T04:48:20.901Z,55.68
2017-07-01T04:49:01.401Z,55.78
2017-07-01T04:49:41.829Z,55.88
2017-07-01T04:50:22.283Z,55.68
2017-07-01T04:51:02.739Z,55.68
2017-07-01T04:51:43.196Z,55.68
2017-07-01T04:52:23.653Z,55.2
2017-07-01T04:53:04.114Z,55.3
2017-07-01T04:53:44.574Z,55.68
2017-07-01T04:54:25.023Z,55.88
2017-07-01T04:55:05.471Z,55.2
2017-07-01T04:55:45.911Z,55.3
2017-07-01T04:56:26.356Z,55.1
2017-07-01T04:57:06.805Z,55.94
2017-07-01T04:57:47.258Z,55.66
2017-07-01T04:58:27.711Z,55.66
2017-07-01T04:59:08.158Z,55.76
2017-07-01T04:59:48.608Z,55.68
2017-07-01T05:00:29.056Z,55.49
2017-07-01T05:01:09.516Z,55.46
2017-07-01T05:01:49.970Z,55.56
2017-07-01T05:02:30.430Z,55.56
2017-07-01T05:03:10.873Z,55.4
2017-07-01T05:03:51.331Z,55.46
2017-07-01T05:04:31.787Z,55.66
2017-07-01T05:05:12.245Z,55.68
2017-07-01T05:05:52.698Z,55.68
2017-07-01T05:06:33.156Z,55.68
2017-07-01T05:07:13.609Z,55.78
2017-07-01T05:07:54.072Z,55.98
2017-07-01T05:08:34.528Z,55.78
2017-07-01T05:09:14.990Z,55.76
2017-07-01T05:09:55.451Z,55.68
2017-07-01T05:10:35.913Z,55.59
2017-07-01T05:11:16.357Z,55.88
2017-07-01T05:11:56.812Z,55.66
2017-07-01T05:12:37.270Z,55.85
2017-07-01T05:13:17.722Z,55.76
2017-07-01T05:13:58.185Z,55.66
2017-07-01T05:14:38.638Z,55.78
2017-07-01T05:15:19.097Z,55.56
2017-07-01T05:15:59.545Z,55.46
2017-07-01T05:16:40.008Z,55.36
2017-07-01T05:18:32.645Z,55.66
2017-07-01T05:19:13.096Z,55.27
2017-07-01T05:19:53.555Z,55.66
2017-07-01T05:20:34.009Z,55.85
2017-07-01T05:21:14.472Z,55.85
2017-07-01T05:21:54.921Z,55.94
2017-07-01T05:22:35.377Z,55.66
2017-07-01T05:23:15.840Z,55.85
2017-07-01T05:23:56.278Z,55.94
2017-07-01T05:24:36.740Z,55.94
2017-07-01T05:25:17.195Z,55.56
2017-07-01T05:25:57.654Z,55.66
2017-07-01T05:26:38.108Z,55.76
2017-07-01T05:27:18.564Z,55.46
2017-07-01T05:27:59.031Z,55.76
2017-07-01T05:28:39.505Z,55.46
2017-07-01T05:29:19.960Z,56.04
2017-07-01T05:30:00.411Z,55.46
2017-07-01T05:30:40.872Z,55.46
2017-07-01T05:31:21.318Z,55.66
2017-07-01T05:32:01.766Z,55.76
2017-07-01T05:32:42.225Z,55.76
2017-07-01T05:33:22.687Z,55.85
2017-07-01T05:34:03.148Z,55.76
2017-07-01T05:34:43.603Z,55.56
2017-07-01T05:35:24.057Z,55.76
2017-07-01T05:36:04.517Z,55.85
2017-07-01T05:36:44.974Z,55.94
2017-07-01T05:37:25.428Z,56.14
2017-07-01T05:38:05.880Z,56.24
2017-07-01T05:38:46.329Z,56.33
2017-07-01T05:39:26.801Z,56.49
2017-07-01T05:40:07.260Z,56.3
2017-07-01T05:40:47.722Z,56.3
2017-07-01T05:41:28.177Z,56.3
2017-07-01T05:42:08.633Z,56.11
2017-07-01T05:42:49.092Z,56.11
2017-07-01T05:43:29.542Z,56.21
2017-07-01T05:44:10.001Z,56.24
2017-07-01T05:44:50.458Z,56.14
2017-07-01T05:45:30.920Z,56.33
2017-07-01T05:46:11.355Z,56.24
2017-07-01T05:46:51.812Z,56.33
2017-07-01T05:47:32.260Z,56.04
2017-07-01T05:48:12.712Z,56.01
2017-07-01T05:48:53.158Z,56.11
2017-07-01T05:49:33.623Z,56.3
2017-07-01T05:50:14.082Z,56.43
2017-07-01T05:50:54.541Z,56.11
2017-07-01T05:51:35.020Z,56.14
2017-07-01T05:52:15.469Z,56.21
2017-07-01T05:52:55.917Z,56.21
2017-07-01T05:53:36.374Z,56.3
2017-07-01T05:54:16.824Z,56.24
2017-07-01T05:54:57.275Z,56.24
2017-07-01T05:55:37.749Z,56.33
2017-07-01T05:56:18.194Z,56.24
2017-07-01T05:56:58.650Z,56.14
2017-07-01T05:57:39.103Z,55.85
2017-07-01T05:58:19.564Z,56.04
2017-07-01T05:59:00.020Z,55.66
2017-07-01T05:59:40.481Z,55.76
2017-07-01T06:00:20.932Z,55.76
2017-07-01T06:01:01.391Z,55.94
2017-07-01T06:01:41.840Z,55.85
2017-07-01T06:02:22.295Z,55.85
2017-07-01T06:03:02.755Z,55.66
2017-07-01T06:03:43.211Z,55.56
2017-07-01T06:04:23.662Z,55.46
2017-07-01T06:05:04.124Z,55.56
2017-07-01T06:05:44.574Z,55.66
2017-07-01T06:06:25.028Z,55.56
2017-07-01T06:07:05.487Z,55.46
2017-07-01T06:07:45.948Z,55.46
2017-07-01T06:08:26.420Z,55.46
2017-07-01T06:09:06.888Z,55.36
2017-07-01T06:09:47.335Z,55.36
2017-07-01T06:10:27.796Z,55.46
2017-07-01T06:11:08.267Z,55.56
2017-07-01T06:11:48.706Z,55.94
2017-07-01T06:12:29.164Z,55.76
2017-07-01T06:13:09.618Z,55.85
2017-07-01T06:13:50.067Z,55.94
2017-07-01T06:14:30.520Z,55.94
2017-07-01T06:15:10.977Z,56.14
2017-07-01T06:15:51.431Z,56.33
2017-07-01T06:16:31.895Z,56.43
2017-07-01T06:17:12.346Z,56.24
2017-07-01T06:17:52.803Z,56.04
2017-07-01T06:18:33.258Z,56.43
2017-07-01T06:19:13.713Z,56.43
2017-07-01T06:19:54.159Z,56.24
2017-07-01T06:20:34.619Z,56.24
2017-07-01T06:21:15.094Z,56.24
2017-07-01T06:21:55.518Z,56.33
2017-07-01T06:22:35.976Z,56.24
2017-07-01T06:23:16.430Z,56.33
2017-07-01T06:23:56.879Z,56.26
2017-07-01T06:24:37.324Z,56.26
2017-07-01T06:25:17.776Z,56.16
2017-07-01T06:25:58.230Z,56.07
2017-07-01T06:26:38.681Z,56.16
2017-07-01T06:27:19.132Z,56.04
2017-07-01T06:27:59.589Z,56.24
2017-07-01T06:29:47.339Z,56.24
2017-07-01T06:30:27.784Z,56.33
2017-07-01T06:31:08.226Z,56.14
2017-07-01T06:31:48.701Z,56.33
2017-07-01T06:32:29.163Z,56.33
2017-07-01T06:33:09.614Z,56.24
2017-07-01T06:33:50.071Z,56.14
2017-07-01T06:34:30.525Z,56.24
2017-07-01T06:35:11.001Z,56.43
2017-07-01T06:35:51.628Z,56.4
2017-07-01T06:36:32.136Z,56.4
2017-07-01T06:37:12.572Z,56.79
2017-07-01T06:37:53.014Z,56.98
2017-07-01T06:38:33.471Z,57.56
2017-07-01T06:39:13.874Z,57.27
2017-07-01T06:39:54.245Z,57.37
2017-07-01T06:40:34.682Z,57.72
2017-07-01T06:41:15.109Z,57.65
2017-07-01T06:41:55.554Z,57.85
2017-07-01T06:42:35.959Z,57.37
2017-07-01T06:43:16.307Z,57.46
2017-07-01T06:43:56.735Z,57.17
2017-07-01T06:44:37.164Z,57.46
2017-07-01T06:45:17.640Z,57.56
2017-07-01T06:45:58.058Z,57.56
2017-07-01T06:46:38.456Z,57.65
2017-07-01T06:47:18.870Z,56.79
2017-07-01T06:47:59.290Z,56.81
2017-07-01T06:48:39.688Z,56.81
2017-07-01T06:49:20.121Z,56.62
2017-07-01T06:50:00.546Z,56.91
2017-07-01T06:50:41.018Z,57.2
2017-07-01T06:51:21.500Z,56.91
2017-07-01T06:52:01.872Z,57.2
2017-07-01T06:52:42.288Z,56.84
2017-07-01T06:53:22.703Z,56.81
2017-07-01T06:54:03.161Z,56.94
2017-07-01T06:54:43.543Z,56.94
2017-07-01T06:55:23.921Z,56.84
2017-07-01T06:56:04.330Z,56.65
2017-07-01T06:56:44.743Z,56.84
2017-07-01T06:57:25.182Z,56.84
2017-07-01T06:58:05.898Z,56.56
2017-07-01T06:58:46.324Z,56.46
2017-07-01T06:59:26.757Z,56.65
2017-07-01T07:00:07.444Z,56.46
2017-07-01T07:00:47.917Z,56.26
2017-07-01T07:01:28.381Z,56.07
2017-07-01T07:02:08.942Z,56.16
2017-07-01T07:04:06.913Z,56.39
2017-07-01T07:04:47.376Z,56.39
2017-07-01T07:05:27.835Z,56.2
2017-07-01T07:06:08.284Z,56.48
2017-07-01T07:06:48.741Z,56.29
2017-07-01T07:07:29.198Z,56.39
2017-07-01T07:08:09.639Z,56.39
2017-07-01T07:08:50.111Z,56.29
2017-07-01T07:09:30.559Z,56.29
2017-07-01T07:10:11.005Z,56.1
2017-07-01T07:10:51.454Z,56.1
2017-07-01T07:11:31.918Z,56
2017-07-01T07:12:12.382Z,56.2
2017-07-01T07:12:52.830Z,55.81
2017-07-01T07:13:33.280Z,56.2
2017-07-01T07:14:13.727Z,55.71
2017-07-01T07:14:54.182Z,56
2017-07-01T07:15:34.634Z,56.29
2017-07-01T07:16:15.089Z,55.9
2017-07-01T07:16:55.631Z,56
2017-07-01T07:17:35.985Z,55.9
2017-07-01T07:18:16.447Z,55.9
2017-07-01T07:18:56.912Z,55.71
2017-07-01T07:19:37.339Z,55.55
2017-07-01T07:20:17.792Z,55.52
2017-07-01T07:20:58.237Z,55.42
2017-07-01T07:21:38.686Z,55.71
2017-07-01T07:22:19.136Z,55.71
2017-07-01T07:22:59.594Z,56
2017-07-01T07:23:40.045Z,56
2017-07-01T07:24:20.503Z,55.74
2017-07-01T07:25:00.948Z,55.71
2017-07-01T07:25:41.400Z,55.74
2017-07-01T07:26:21.890Z,55.45
2017-07-01T07:27:02.295Z,55.42
2017-07-01T07:27:42.748Z,55.65
2017-07-01T07:28:23.195Z,55.65
2017-07-01T07:29:03.662Z,55.55
2017-07-01T07:29:44.150Z,55.45
2017-07-01T07:30:24.605Z,55.83
2017-07-01T07:31:05.077Z,55.83
2017-07-01T07:31:45.499Z,55.74
2017-07-01T07:32:25.959Z,55.83
2017-07-01T07:33:06.419Z,55.74
2017-07-01T07:33:46.868Z,55.93
2017-07-01T07:34:27.326Z,55.74
2017-07-01T07:35:07.769Z,55.93
2017-07-01T07:37:25.782Z,55.74
2017-07-01T07:38:06.232Z,55.93
2017-07-01T07:38:46.701Z,55.93
2017-07-01T07:39:27.149Z,55.74
2017-07-01T07:40:07.619Z,55.93
2017-07-01T07:40:48.149Z,55.93
2017-07-01T07:41:28.532Z,55.74
2017-07-01T07:42:09.162Z,55.83
2017-07-01T07:42:49.621Z,55.74
2017-07-01T07:43:30.073Z,55.74
2017-07-01T07:44:10.529Z,55.65
2017-07-01T07:44:51.057Z,55.74
2017-07-01T07:45:31.461Z,55.83
2017-07-01T07:46:11.885Z,55.65
2017-07-01T07:46:52.343Z,55.65
2017-07-01T07:47:32.784Z,55.16
2017-07-01T07:48:13.215Z,55.35
2017-07-01T07:48:53.633Z,55.83
2017-07-01T07:49:34.014Z,56.03
2017-07-01T07:50:14.460Z,55.93
2017-07-01T07:50:54.909Z,55.65
2017-07-01T07:51:35.378Z,56.03
2017-07-01T07:52:15.827Z,56.03
2017-07-01T07:52:56.283Z,55.65
2017-07-01T07:53:36.720Z,55.93
2017-07-01T07:54:17.171Z,55.65
2017-07-01T07:54:57.631Z,55.93
2017-07-01T07:55:38.076Z,55.93
2017-07-01T07:56:18.533Z,55.65
2017-07-01T07:56:58.982Z,55.74
2017-07-01T07:57:39.440Z,55.93
2017-07-01T07:58:19.899Z,55.93
2017-07-01T07:59:00.375Z,55.74
2017-07-01T07:59:40.881Z,55.74
2017-07-01T08:00:21.305Z,55.74
2017-07-01T08:01:01.752Z,55.93
2017-07-01T08:01:42.220Z,55.74
2017-07-01T08:02:22.675Z,55.74
2017-07-01T08:03:03.127Z,55.65
2017-07-01T08:03:43.577Z,56.03
2017-07-01T08:04:24.034Z,55.65
2017-07-01T08:05:04.513Z,56.03
2017-07-01T08:05:44.935Z,55.74
2017-07-01T08:06:25.396Z,55.35
2017-07-01T08:07:05.881Z,56.03
2017-07-01T08:07:46.329Z,55.35
2017-07-01T08:08:26.772Z,55.45
2017-07-01T08:09:07.221Z,55.83
2017-07-01T08:09:47.678Z,55.45
2017-07-01T08:10:28.134Z,55.45
2017-07-01T08:11:08.587Z,55.35
2017-07-01T08:11:49.039Z,55.26
2017-07-01T08:12:29.510Z,55.35
2017-07-01T08:13:09.990Z,55.45
2017-07-01T08:13:50.450Z,55.26
2017-07-01T08:14:30.902Z,55.16
2017-07-01T08:15:11.357Z,55.35
2017-07-01T08:15:51.819Z,55.35
2017-07-01T08:16:32.272Z,55.35
2017-07-01T08:17:12.714Z,55.55
2017-07-01T08:17:53.167Z,55.16
2017-07-01T08:18:33.618Z,55.26
2017-07-01T08:19:14.069Z,55.35
2017-07-01T08:19:54.533Z,55.45
2017-07-01T08:20:34.989Z,55.45
2017-07-01T08:21:15.423Z,55.07
2017-07-01T08:21:55.877Z,55.45
2017-07-01T08:22:36.325Z,55.47
2017-07-01T08:23:16.752Z,55.35
2017-07-01T08:23:57.217Z,55.35
2017-07-01T08:24:37.683Z,55.29
2017-07-01T08:25:18.138Z,55.35
2017-07-01T08:25:58.599Z,55.35
2017-07-01T08:27:56.630Z,55.57
2017-07-01T08:28:37.078Z,55.55
2017-07-01T08:29:17.513Z,55.19
2017-07-01T08:29:57.958Z,55.74
2017-07-01T08:30:38.428Z,55.57
2017-07-01T08:31:18.872Z,55.38
2017-07-01T08:31:59.327Z,55.35
2017-07-01T08:32:39.794Z,55.26
2017-07-01T08:33:20.256Z,55.26
2017-07-01T08:34:00.706Z,55.47
2017-07-01T08:34:41.164Z,55.35
2017-07-01T08:35:21.612Z,55.47
2017-07-01T08:36:02.064Z,55.35
2017-07-01T08:36:42.523Z,55.45
2017-07-01T08:37:22.976Z,55.26
2017-07-01T08:38:03.434Z,55.55
2017-07-01T08:38:43.919Z,55.35
2017-07-01T08:39:24.362Z,55.26
2017-07-01T08:40:04.805Z,56.05
2017-07-01T08:40:45.256Z,55.96
2017-07-01T08:41:25.705Z,55.96
2017-07-01T08:42:06.157Z,56.05
2017-07-01T08:42:46.611Z,56.03
2017-07-01T08:43:27.094Z,56.05
2017-07-01T08:44:07.551Z,56.05
2017-07-01T08:44:48.007Z,55.93
2017-07-01T08:45:28.462Z,55.93
2017-07-01T08:46:08.918Z,55.26
2017-07-01T08:46:49.369Z,55.67
2017-07-01T08:47:29.823Z,55.67
2017-07-01T08:48:10.273Z,55.74
2017-07-01T08:48:50.731Z,55.74
2017-07-01T08:49:31.182Z,55.74
2017-07-01T08:50:11.644Z,55.67
2017-07-01T08:50:52.099Z,55.74
2017-07-01T08:51:32.556Z,55.93
2017-07-01T08:52:13.009Z,55.77
2017-07-01T08:52:53.442Z,55.67
2017-07-01T08:53:33.896Z,55.74
2017-07-01T08:54:14.351Z,55.93